Time;durP1;ratioP1;P1;durP2;ratioP2;P2;SDS_P1;SDS_P2;PMS_P1;PMS_P2;Temp;Humidity;BMP_temperature;BMP_pressure;BME280_temperature;BME280_humidity;BME280_pressure;Samples;Min_cycle;Max_cycle;Signal;HPM_P1;HPM_P2
2022/07/06 00:02:15;;;;;;;1.95;1.33;;;15.10;99.90;;;;;;4914790;29;20543;-74
2022/07/06 00:04:40;;;;;;;1.80;1.25;;;15.20;99.90;;;;;;4910258;29;20055;-76
2022/07/06 00:07:06;;;;;;;1.20;0.90;;;15.20;99.90;;;;;;4904976;29;20078;-72
2022/07/06 00:09:33;;;;;;;1.75;1.20;;;15.20;99.90;;;;;;4921041;29;20834;-74
2022/07/06 00:11:58;;;;;;;1.25;1.05;;;15.10;99.90;;;;;;4917791;29;20055;-73
2022/07/06 00:14:24;;;;;;;2.42;1.25;;;15.50;99.90;;;;;;4916261;29;20058;-78
2022/07/06 00:16:50;;;;;;;3.72;1.40;;;15.10;99.90;;;;;;4906155;29;20040;-76
2022/07/06 00:19:16;;;;;;;3.78;1.67;;;15.10;99.90;;;;;;4919611;29;20059;-72
2022/07/06 00:21:41;;;;;;;1.52;0.82;;;15.10;99.90;;;;;;4916525;29;20110;-72
2022/07/06 00:24:07;;;;;;;1.70;1.20;;;15.10;99.90;;;;;;4919761;28;20516;-77
2022/07/06 00:26:33;;;;;;;2.72;1.05;;;15.00;99.90;;;;;;4918520;29;20066;-75
2022/07/06 00:28:59;;;;;;;1.38;1.00;;;15.00;99.90;;;;;;4912737;29;20055;-73
2022/07/06 00:31:24;;;;;;;2.63;1.10;;;15.00;99.90;;;;;;4919629;29;20137;-73
2022/07/06 00:33:50;;;;;;;0.93;0.80;;;15.00;99.90;;;;;;4917489;29;20143;-72
2022/07/06 00:36:16;;;;;;;3.85;0.95;;;15.00;99.90;;;;;;4918621;29;20051;-75
2022/07/06 00:38:42;;;;;;;2.75;1.25;;;15.00;99.90;;;;;;4919597;29;20753;-71
2022/07/06 00:41:07;;;;;;;2.22;1.55;;;15.00;99.90;;;;;;4917540;29;20047;-73
2022/07/06 00:43:55;;;;;;;1.15;0.88;;;15.00;99.90;;;;;;4920240;29;20059;-75
2022/07/06 00:46:26;;;;;;;4.93;1.30;;;15.00;99.90;;;;;;4915388;29;20411;-71
2022/07/06 00:48:52;;;;;;;2.20;1.15;;;15.00;99.90;;;;;;4905473;29;20052;-75
2022/07/06 00:51:18;;;;;;;2.92;1.00;;;15.00;99.90;;;;;;4903646;29;20059;-77
2022/07/06 00:53:44;;;;;;;1.77;0.90;;;15.00;99.90;;;;;;4914014;29;20047;-73
2022/07/06 00:56:10;;;;;;;1.27;1.00;;;14.90;99.90;;;;;;4917293;29;20861;-74
2022/07/06 00:58:36;;;;;;;2.53;1.00;;;14.90;99.90;;;;;;4918792;29;20134;-74
2022/07/06 01:01:02;;;;;;;3.13;0.95;;;14.90;99.90;;;;;;4914932;29;20472;-72
2022/07/06 01:03:27;;;;;;;5.32;1.30;;;14.90;99.90;;;;;;4908218;29;20046;-75
2022/07/06 01:05:53;;;;;;;4.45;1.20;;;14.90;99.90;;;;;;4918864;29;20123;-72
2022/07/06 01:08:19;;;;;;;1.10;0.80;;;14.90;99.90;;;;;;4919160;29;20114;-75
2022/07/06 01:10:45;;;;;;;3.58;1.33;;;14.80;99.90;;;;;;4920369;29;20052;-76
2022/07/06 01:13:11;;;;;;;1.60;1.40;;;14.80;99.90;;;;;;4915256;29;20043;-73
2022/07/06 01:15:37;;;;;;;5.82;1.33;;;14.80;99.90;;;;;;4912858;29;20497;-71
2022/07/06 01:18:03;;;;;;;1.10;1.00;;;14.80;99.90;;;;;;4915662;29;20043;-72
2022/07/06 01:20:30;;;;;;;3.53;1.52;;;14.80;99.90;;;;;;4915253;29;20158;-72
2022/07/06 01:22:59;;;;;;;2.45;1.30;;;14.70;99.90;;;;;;4915879;29;20044;-72
2022/07/06 01:25:25;;;;;;;2.42;1.05;;;14.80;99.90;;;;;;4919836;29;20150;-76
2022/07/06 01:27:51;;;;;;;3.05;1.30;;;14.80;99.90;;;;;;4911329;29;20629;-74
2022/07/06 01:30:18;;;;;;;3.08;1.42;;;14.70;99.90;;;;;;4915890;29;20130;-76
2022/07/06 01:32:44;;;;;;;1.92;1.10;;;14.80;99.90;;;;;;4919797;29;20158;-74
2022/07/06 01:35:12;;;;;;;1.40;1.30;;;14.70;99.90;;;;;;4913638;29;20755;-74
2022/07/06 01:37:39;;;;;;;1.33;1.00;;;14.70;99.90;;;;;;4908442;29;20058;-73
2022/07/06 01:40:07;;;;;;;2.45;1.20;;;14.70;99.90;;;;;;4919434;29;20114;-74
2022/07/06 01:42:33;;;;;;;1.77;0.93;;;14.70;99.90;;;;;;4914628;29;20060;-73
2022/07/06 01:44:59;;;;;;;1.40;1.13;;;14.70;99.90;;;;;;4917040;29;20056;-75
2022/07/06 01:47:25;;;;;;;3.55;1.02;;;14.70;99.90;;;;;;4918476;29;20058;-77
2022/07/06 01:49:51;;;;;;;2.08;1.10;;;14.70;99.90;;;;;;4925856;29;20044;-75
2022/07/06 01:52:17;;;;;;;2.35;0.80;;;14.70;99.90;;;;;;4927870;28;20054;-73
2022/07/06 01:54:43;;;;;;;2.15;1.17;;;14.70;99.90;;;;;;4905850;29;20051;-75
2022/07/06 01:57:09;;;;;;;3.00;1.20;;;14.80;99.90;;;;;;4892564;29;20738;-72
2022/07/06 01:59:35;;;;;;;1.45;1.02;;;14.80;99.90;;;;;;4909105;29;20471;-74
2022/07/06 02:02:01;;;;;;;3.22;1.90;;;14.70;99.90;;;;;;4916529;29;20698;-73
2022/07/06 02:04:26;;;;;;;1.30;1.13;;;14.70;99.90;;;;;;4914568;29;20823;-71
2022/07/06 02:06:52;;;;;;;4.32;1.60;;;14.70;99.90;;;;;;4909998;29;20139;-74
2022/07/06 02:09:18;;;;;;;2.25;1.48;;;14.70;99.90;;;;;;4916420;29;20056;-75
2022/07/06 02:11:44;;;;;;;4.85;1.50;;;14.70;99.90;;;;;;4902934;29;20043;-73
2022/07/06 02:14:10;;;;;;;1.77;1.20;;;14.70;99.90;;;;;;4914728;29;20130;-74
2022/07/06 02:16:35;;;;;;;1.55;0.90;;;14.70;99.90;;;;;;4915930;29;20163;-73
2022/07/06 02:19:02;;;;;;;1.10;1.00;;;14.70;99.90;;;;;;4917582;29;20056;-73
2022/07/06 02:21:27;;;;;;;3.25;1.30;;;14.70;99.90;;;;;;4915855;29;20062;-75
2022/07/06 02:23:53;;;;;;;1.80;1.40;;;14.70;99.90;;;;;;4919791;29;20048;-71
2022/07/06 02:26:19;;;;;;;1.73;1.60;;;14.70;99.90;;;;;;4921587;29;20094;-74
2022/07/06 02:28:48;;;;;;;1.60;0.90;;;14.70;99.90;;;;;;4921139;29;20059;-74
2022/07/06 02:31:14;;;;;;;2.85;1.10;;;14.70;99.90;;;;;;4920256;29;20162;-71
2022/07/06 02:33:41;;;;;;;2.63;1.00;;;14.70;99.90;;;;;;4919572;29;20063;-75
2022/07/06 02:36:07;;;;;;;2.60;1.45;;;14.70;99.90;;;;;;4917132;29;20062;-73
2022/07/06 02:38:33;;;;;;;1.20;1.10;;;14.70;99.90;;;;;;4928705;28;20055;-74
2022/07/06 02:40:59;;;;;;;1.48;1.17;;;14.70;99.90;;;;;;4925138;29;20051;-72
2022/07/06 02:43:24;;;;;;;1.55;1.23;;;14.70;99.90;;;;;;4920021;29;20111;-72
2022/07/06 02:45:50;;;;;;;2.33;1.20;;;14.70;99.90;;;;;;4920486;29;20051;-75
2022/07/06 02:48:16;;;;;;;2.17;1.55;;;14.70;99.90;;;;;;4912696;29;20129;-76
2022/07/06 02:50:41;;;;;;;1.63;1.20;;;14.70;99.90;;;;;;4920613;29;20139;-73
2022/07/06 02:53:07;;;;;;;1.48;1.05;;;14.80;99.90;;;;;;4919400;29;20773;-75
2022/07/06 02:55:33;;;;;;;4.95;1.20;;;14.70;99.90;;;;;;4921128;29;20422;-73
2022/07/06 02:57:58;;;;;;;2.42;1.15;;;14.70;99.90;;;;;;4899323;29;20107;-72
2022/07/06 03:00:24;;;;;;;1.52;1.13;;;14.70;99.90;;;;;;4919488;29;20051;-73
2022/07/06 03:02:50;;;;;;;2.72;1.45;;;14.80;99.90;;;;;;4904708;29;20805;-73
2022/07/06 03:05:16;;;;;;;1.38;1.00;;;14.70;99.90;;;;;;4916363;29;20048;-74
2022/07/06 03:07:41;;;;;;;1.67;1.10;;;14.70;99.90;;;;;;4913192;29;20052;-73
2022/07/06 03:10:07;;;;;;;5.32;1.55;;;14.60;99.90;;;;;;4921496;29;20042;-74
2022/07/06 03:12:33;;;;;;;2.90;1.20;;;14.50;99.90;;;;;;4919147;29;20090;-77
2022/07/06 03:14:58;;;;;;;5.07;1.45;;;14.50;99.90;;;;;;4926934;28;20051;-73
2022/07/06 03:17:24;;;;;;;1.67;1.58;;;14.50;99.90;;;;;;4926463;28;20051;-75
2022/07/06 03:19:50;;;;;;;3.25;1.10;;;14.40;99.90;;;;;;4920121;29;20086;-75
2022/07/06 03:22:16;;;;;;;1.38;1.25;;;14.30;99.90;;;;;;4915791;29;20055;-76
2022/07/06 03:24:42;;;;;;;2.92;1.30;;;14.30;99.90;;;;;;4916337;29;20055;-76
2022/07/06 03:27:07;;;;;;;1.63;1.38;;;14.30;99.90;;;;;;4919633;29;20806;-75
2022/07/06 03:29:33;;;;;;;3.33;1.33;;;14.20;99.90;;;;;;4920261;29;20163;-73
2022/07/06 03:31:59;;;;;;;4.15;2.17;;;14.20;99.90;;;;;;4919401;28;20139;-71
2022/07/06 03:34:24;;;;;;;3.58;1.90;;;14.20;99.90;;;;;;4918553;29;20047;-76
2022/07/06 03:36:50;;;;;;;1.92;1.00;;;14.10;99.90;;;;;;4921128;29;20047;-71
2022/07/06 03:39:16;;;;;;;1.30;0.90;;;14.00;99.90;;;;;;4919616;29;20051;-74
2022/07/06 03:41:41;;;;;;;5.82;1.33;;;14.00;99.90;;;;;;4901440;29;20051;-72
2022/07/06 03:44:07;;;;;;;1.85;1.20;;;14.00;99.90;;;;;;4927203;29;20046;-73
2022/07/06 03:46:33;;;;;;;4.20;1.42;;;13.90;99.90;;;;;;4905727;29;20051;-73
2022/07/06 03:48:59;;;;;;;4.82;1.60;;;13.80;99.90;;;;;;4929550;29;20656;-73
2022/07/06 03:51:24;;;;;;;1.65;1.10;;;13.80;99.90;;;;;;4920852;28;20488;-74
2022/07/06 03:53:50;;;;;;;2.92;1.38;;;13.80;99.90;;;;;;4926153;28;20767;-73
2022/07/06 03:56:28;;;;;;;1.55;1.00;;;13.70;99.90;;;;;;4921457;29;20043;-71
2022/07/06 03:58:58;;;;;;;2.20;1.42;;;13.70;99.90;;;;;;4913438;29;20056;-73
2022/07/06 04:01:24;;;;;;;3.15;1.10;;;13.60;99.90;;;;;;4914199;29;20147;-73
2022/07/06 04:03:50;;;;;;;3.25;1.80;;;13.60;99.90;;;;;;4915059;29;20052;-71
2022/07/06 04:06:15;;;;;;;2.22;1.10;;;13.60;99.90;;;;;;4910814;29;20621;-70
2022/07/06 04:08:41;;;;;;;1.67;1.00;;;13.60;99.90;;;;;;4919127;29;20054;-72
2022/07/06 04:11:07;;;;;;;4.50;1.48;;;13.60;99.90;;;;;;4915317;29;20396;-73
2022/07/06 04:13:33;;;;;;;1.80;1.40;;;13.60;99.90;;;;;;4924083;29;20071;-75
2022/07/06 04:15:58;;;;;;;1.42;1.33;;;13.60;99.90;;;;;;4919766;29;20052;-73
2022/07/06 04:18:24;;;;;;;2.15;1.02;;;13.60;99.90;;;;;;4919282;29;20599;-74
2022/07/06 04:20:50;;;;;;;2.65;1.20;;;13.50;99.90;;;;;;4915763;29;20251;-73
2022/07/06 04:23:16;;;;;;;1.77;1.20;;;13.50;99.90;;;;;;4913638;29;20059;-71
2022/07/06 04:25:41;;;;;;;1.30;1.20;;;13.50;99.90;;;;;;4909909;29;20839;-71
2022/07/06 04:28:07;;;;;;;1.52;1.02;;;13.50;99.90;;;;;;4919717;29;20618;-73
2022/07/06 04:30:33;;;;;;;1.20;1.10;;;13.50;99.90;;;;;;4920722;29;20063;-73
2022/07/06 04:32:59;;;;;;;4.13;1.30;;;13.60;99.90;;;;;;4905968;29;20544;-74
2022/07/06 04:35:25;;;;;;;4.20;1.30;;;13.60;99.90;;;;;;4918478;29;20135;-72
2022/07/06 04:37:50;;;;;;;1.65;1.20;;;13.70;99.90;;;;;;4912558;29;20075;-71
2022/07/06 04:40:16;;;;;;;2.45;1.35;;;13.70;99.90;;;;;;4919429;29;20048;-73
2022/07/06 04:42:42;;;;;;;1.73;1.40;;;13.80;99.90;;;;;;4919612;29;20048;-72
2022/07/06 04:45:09;;;;;;;3.80;1.52;;;13.90;99.90;;;;;;4922006;28;20130;-73
2022/07/06 04:47:35;;;;;;;3.05;1.67;;;14.00;99.90;;;;;;4915075;29;20058;-76
2022/07/06 04:50:01;;;;;;;3.67;1.23;;;14.20;99.90;;;;;;4918982;29;20051;-73
2022/07/06 04:52:27;;;;;;;2.53;1.23;;;14.30;99.90;;;;;;4908290;29;20048;-72
2022/07/06 04:54:54;;;;;;;3.28;1.65;;;14.40;99.90;;;;;;4907795;29;20059;-71
2022/07/06 04:57:20;;;;;;;1.00;0.98;;;14.50;99.90;;;;;;4916236;29;20073;-73
2022/07/06 04:59:46;;;;;;;2.17;1.27;;;14.50;99.90;;;;;;4918320;29;20575;-73
2022/07/06 05:02:12;;;;;;;4.78;1.27;;;14.60;99.90;;;;;;4924048;29;20043;-73
2022/07/06 05:04:37;;;;;;;2.90;1.10;;;14.60;99.90;;;;;;4920203;29;20048;-75
2022/07/06 05:07:03;;;;;;;4.00;1.10;;;14.60;99.90;;;;;;4918377;28;20075;-72
2022/07/06 05:09:29;;;;;;;2.35;0.88;;;14.60;99.90;;;;;;4923235;29;20055;-72
2022/07/06 05:11:55;;;;;;;3.00;1.00;;;14.70;99.90;;;;;;4926857;28;20087;-75
2022/07/06 05:14:20;;;;;;;3.38;2.65;;;14.70;99.90;;;;;;4914011;29;20044;-72
2022/07/06 05:16:46;;;;;;;2.70;1.05;;;14.70;99.90;;;;;;4923558;29;20154;-75
2022/07/06 05:19:12;;;;;;;1.42;1.08;;;14.70;99.90;;;;;;4916446;29;20055;-73
2022/07/06 05:21:38;;;;;;;1.15;1.05;;;14.80;99.90;;;;;;4918169;29;20059;-76
2022/07/06 05:24:04;;;;;;;1.73;0.90;;;14.80;99.90;;;;;;4923143;29;20050;-71
2022/07/06 05:26:29;;;;;;;1.52;1.40;;;14.90;99.90;;;;;;4917595;29;20064;-73
2022/07/06 05:28:55;;;;;;;4.03;1.20;;;15.00;99.90;;;;;;4914603;29;20585;-75
2022/07/06 05:31:21;;;;;;;1.00;0.90;;;15.10;99.90;;;;;;4924433;29;20107;-73
2022/07/06 05:33:46;;;;;;;1.08;0.90;;;15.10;99.90;;;;;;4925102;29;20058;-73
2022/07/06 05:36:12;;;;;;;1.98;1.05;;;15.20;99.90;;;;;;4919127;28;20052;-77
2022/07/06 05:38:38;;;;;;;3.20;1.20;;;15.30;99.90;;;;;;4922440;29;20087;-75
2022/07/06 05:41:04;;;;;;;4.75;1.10;;;15.30;99.90;;;;;;4923359;29;20055;-73
2022/07/06 05:43:30;;;;;;;2.15;1.25;;;15.40;99.90;;;;;;4915366;29;20044;-74
2022/07/06 05:45:55;;;;;;;3.08;1.25;;;15.40;99.90;;;;;;4917712;28;20051;-74
2022/07/06 05:51:05;;;;;;;0.77;0.77;;;15.40;99.90;;;;;;4908942;29;20058;-74
2022/07/06 05:53:31;;;;;;;2.95;1.33;;;15.50;99.90;;;;;;4916961;29;20051;-77
2022/07/06 05:55:57;;;;;;;3.90;1.23;;;15.50;99.90;;;;;;4928384;28;20053;-77
2022/07/06 05:58:24;;;;;;;2.30;1.00;;;15.50;99.90;;;;;;4921877;29;20134;-75
2022/07/06 06:00:51;;;;;;;1.63;0.80;;;15.30;99.90;;;;;;4935587;29;20054;-72
2022/07/06 06:03:17;;;;;;;2.63;1.08;;;15.40;99.90;;;;;;4930938;28;20059;-73
2022/07/06 06:05:42;;;;;;;9.13;1.00;;;15.30;99.90;;;;;;4931160;29;20106;-72
2022/07/06 06:08:08;;;;;;;1.40;0.70;;;15.30;99.90;;;;;;4928950;29;20129;-75
2022/07/06 06:10:34;;;;;;;3.47;0.93;;;15.30;99.90;;;;;;4921855;29;20087;-72
2022/07/06 06:12:59;;;;;;;2.15;0.70;;;15.50;99.90;;;;;;4922319;29;20087;-73
2022/07/06 06:15:25;;;;;;;2.80;0.88;;;15.60;99.90;;;;;;4915742;29;20483;-74
2022/07/06 06:17:51;;;;;;;0.95;0.93;;;15.70;99.90;;;;;;4915874;29;20138;-73
2022/07/06 06:20:17;;;;;;;1.55;0.52;;;15.90;99.90;;;;;;4917877;29;20122;-75
2022/07/06 06:22:50;;;;;;;1.55;0.50;;;16.00;99.90;;;;;;4905086;29;20055;-76
2022/07/06 06:25:17;;;;;;;0.80;0.50;;;16.00;99.90;;;;;;4905123;29;20515;-72
2022/07/06 06:27:43;;;;;;;0.80;0.70;;;16.00;99.90;;;;;;4923911;29;20051;-76
2022/07/06 06:30:10;;;;;;;0.88;0.80;;;15.90;99.90;;;;;;4930624;29;20106;-70
2022/07/06 06:32:35;;;;;;;2.60;0.73;;;16.00;99.90;;;;;;4932945;29;20783;-71
2022/07/06 06:35:01;;;;;;;1.95;0.85;;;16.00;99.90;;;;;;4922842;29;20082;-73
2022/07/06 06:37:27;;;;;;;2.58;0.80;;;15.80;99.90;;;;;;4917768;29;20098;-71
2022/07/06 06:39:53;;;;;;;1.38;1.25;;;15.70;99.90;;;;;;4921536;29;20248;-75
2022/07/06 06:42:18;;;;;;;0.65;0.65;;;15.60;99.90;;;;;;4921760;29;20143;-74
2022/07/06 06:44:44;;;;;;;0.73;0.52;;;15.40;99.90;;;;;;4939131;28;20051;-71
2022/07/06 06:47:10;;;;;;;1.33;0.90;;;15.30;99.90;;;;;;4908709;28;20051;-73
2022/07/06 06:49:35;;;;;;;1.00;0.80;;;15.30;99.90;;;;;;4904375;29;20135;-71
2022/07/06 06:52:01;;;;;;;2.75;0.75;;;15.30;99.90;;;;;;4919457;29;20491;-74
2022/07/06 06:54:26;;;;;;;3.95;0.75;;;15.40;99.90;;;;;;4909502;29;20078;-72
2022/07/06 06:56:52;;;;;;;2.92;0.80;;;15.30;99.90;;;;;;4920920;29;20080;-74
2022/07/06 06:59:18;;;;;;;1.83;0.65;;;15.30;99.90;;;;;;4917789;29;20886;-76
2022/07/06 07:01:44;;;;;;;3.15;1.08;;;15.40;99.90;;;;;;4930906;29;20408;-75
2022/07/06 07:04:09;;;;;;;2.60;1.13;;;15.40;99.90;;;;;;4923287;28;20075;-73
2022/07/06 07:06:35;;;;;;;0.70;0.70;;;15.50;99.90;;;;;;4936631;28;20054;-73
2022/07/06 07:09:01;;;;;;;1.38;0.73;;;15.50;99.90;;;;;;4920657;29;20618;-71
2022/07/06 07:11:27;;;;;;;2.47;1.45;;;15.80;99.90;;;;;;4909278;29;20054;-71
2022/07/06 07:13:52;;;;;;;3.40;1.80;;;16.10;99.90;;;;;;4922215;29;20567;-72
2022/07/06 07:16:18;;;;;;;2.30;1.00;;;16.20;99.90;;;;;;4936546;28;20849;-76
2022/07/06 07:18:44;;;;;;;1.42;1.27;;;16.20;99.90;;;;;;4915247;29;20071;-73
2022/07/06 07:21:09;;;;;;;2.75;1.15;;;16.40;99.90;;;;;;4925593;29;20051;-72
2022/07/06 07:23:35;;;;;;;1.73;1.00;;;17.30;99.90;;;;;;4939002;28;20050;-73
2022/07/06 07:26:01;;;;;;;1.20;0.60;;;18.80;99.90;;;;;;4920397;29;20087;-74
2022/07/06 07:28:26;;;;;;;1.38;0.90;;;19.80;99.90;;;;;;4915230;29;20568;-72
2022/07/06 07:30:52;;;;;;;1.90;1.02;;;20.80;99.90;;;;;;4906602;29;20095;-72
2022/07/06 07:33:18;;;;;;;3.33;1.02;;;21.90;99.90;;;;;;4919947;28;20905;-75
2022/07/06 07:35:43;;;;;;;3.95;1.17;;;22.00;99.90;;;;;;4913378;29;20054;-73
2022/07/06 07:38:09;;;;;;;3.08;1.23;;;22.50;99.90;;;;;;4918861;29;20567;-72
2022/07/06 07:40:35;;;;;;;2.42;0.70;;;23.10;99.90;;;;;;4920724;29;20083;-73
2022/07/06 07:43:01;;;;;;;2.05;0.90;;;23.10;99.90;;;;;;4918607;29;20058;-71
2022/07/06 07:45:27;;;;;;;5.70;0.98;;;22.30;99.90;;;;;;4929323;29;20051;-71
2022/07/06 07:47:52;;;;;;;2.75;0.85;;;21.40;99.90;;;;;;4918088;29;20115;-72
2022/07/06 07:50:18;;;;;;;3.88;1.15;;;20.60;99.90;;;;;;4920457;29;20056;-77
2022/07/06 07:52:44;;;;;;;2.22;1.00;;;20.10;99.90;;;;;;4922018;29;20102;-72
2022/07/06 07:55:10;;;;;;;4.32;0.80;;;19.60;99.90;;;;;;4923628;28;20079;-75
2022/07/06 07:57:36;;;;;;;2.03;0.65;;;19.40;99.90;;;;;;4928652;28;20570;-70
2022/07/06 08:00:04;;;;;;;2.08;1.00;;;19.10;99.90;;;;;;4923938;28;20517;-70
2022/07/06 08:02:30;;;;;;;2.08;0.60;;;18.90;99.90;;;;;;4913890;28;20812;-71
2022/07/06 08:04:55;;;;;;;3.22;1.05;;;19.20;99.90;;;;;;4918359;29;20061;-73
2022/07/06 08:07:21;;;;;;;3.28;0.98;;;19.80;99.90;;;;;;4912659;29;20594;-72
2022/07/06 08:09:47;;;;;;;2.42;0.80;;;21.00;99.90;;;;;;4919910;29;20054;-70
2022/07/06 08:12:13;;;;;;;4.22;1.05;;;22.00;98.50;;;;;;4916082;28;20059;-72
2022/07/06 08:14:38;;;;;;;4.57;0.80;;;22.40;96.80;;;;;;4919629;29;20051;-74
2022/07/06 08:17:04;;;;;;;1.85;0.90;;;22.60;96.60;;;;;;4914461;29;20051;-74
2022/07/06 08:19:30;;;;;;;1.60;0.82;;;22.30;96.50;;;;;;4914695;28;20151;-72
2022/07/06 08:21:57;;;;;;;2.40;1.13;;;21.90;96.50;;;;;;4917237;29;20163;-71
2022/07/06 08:24:22;;;;;;;2.13;0.90;;;21.40;96.40;;;;;;4917492;29;20052;-72
2022/07/06 08:26:48;;;;;;;1.25;0.80;;;20.60;96.60;;;;;;4919014;29;20407;-74
2022/07/06 08:29:14;;;;;;;4.35;1.20;;;19.80;95.30;;;;;;4919527;29;20059;-73
2022/07/06 08:31:39;;;;;;;1.52;0.75;;;19.90;96.30;;;;;;4927009;29;20062;-74
2022/07/06 08:34:05;;;;;;;27.05;6.97;;;20.20;95.80;;;;;;4925587;28;20078;-75
2022/07/06 08:36:31;;;;;;;1.27;0.50;;;20.60;95.80;;;;;;4921319;29;20048;-75
2022/07/06 08:38:58;;;;;;;1.83;0.90;;;21.20;95.40;;;;;;4921060;28;20375;-74
2022/07/06 08:41:25;;;;;;;3.20;1.05;;;21.50;94.50;;;;;;4924677;29;20054;-73
2022/07/06 08:43:52;;;;;;;1.63;0.80;;;21.80;93.10;;;;;;4926324;28;20055;-74
2022/07/06 08:46:19;;;;;;;1.50;0.77;;;22.20;93.60;;;;;;4906170;29;20054;-75
2022/07/06 08:48:45;;;;;;;1.60;0.75;;;22.00;93.30;;;;;;4919484;29;20074;-74
2022/07/06 08:51:13;;;;;;;5.63;0.80;;;22.20;93.80;;;;;;4902867;28;20476;-72
2022/07/06 08:53:41;;;;;;;1.10;0.35;;;22.10;91.30;;;;;;4904017;29;20052;-74
2022/07/06 08:56:07;;;;;;;0.82;0.50;;;22.40;92.10;;;;;;4915048;29;20067;-75
2022/07/06 08:58:33;;;;;;;1.70;0.70;;;22.60;91.80;;;;;;4915848;29;20051;-73
2022/07/06 09:01:00;;;;;;;5.90;0.90;;;22.50;91.30;;;;;;4911420;29;20788;-74
2022/07/06 09:03:26;;;;;;;1.25;0.80;;;22.60;90.00;;;;;;4916530;29;20127;-73
2022/07/06 09:05:55;;;;;;;1.67;0.55;;;22.80;90.30;;;;;;4916783;29;20059;-75
2022/07/06 09:08:23;;;;;;;2.20;0.65;;;22.40;86.20;;;;;;4910960;29;20052;-73
2022/07/06 09:10:49;;;;;;;1.50;1.35;;;22.40;89.60;;;;;;4915233;29;20040;-73
2022/07/06 09:13:15;;;;;;;0.90;0.70;;;23.00;87.90;;;;;;4919795;29;20175;-76
2022/07/06 09:15:41;;;;;;;0.93;0.57;;;23.20;87.60;;;;;;4917014;29;20571;-71
2022/07/06 09:18:08;;;;;;;2.08;0.80;;;23.30;89.50;;;;;;4919152;29;20385;-75
2022/07/06 09:20:34;;;;;;;1.42;0.82;;;23.60;89.90;;;;;;4920404;29;20130;-73
2022/07/06 09:23:01;;;;;;;4.35;0.50;;;23.80;88.00;;;;;;4908738;29;20047;-72
2022/07/06 09:25:28;;;;;;;1.02;0.93;;;22.50;88.30;;;;;;4918793;29;20130;-71
2022/07/06 09:27:54;;;;;;;1.48;0.63;;;22.00;90.20;;;;;;4911617;29;20059;-72
2022/07/06 09:30:22;;;;;;;1.23;0.50;;;21.60;91.00;;;;;;4924078;29;20150;-74
2022/07/06 09:32:54;;;;;;;0.85;0.60;;;21.00;91.20;;;;;;4914249;29;20689;-71
2022/07/06 09:35:21;;;;;;;2.35;1.05;;;20.60;90.90;;;;;;4921313;29;20142;-73
2022/07/06 09:37:59;;;;;;;2.17;0.70;;;20.30;91.20;;;;;;4918133;29;20059;-71
2022/07/06 09:40:24;;;;;;;0.73;0.50;;;19.90;92.00;;;;;;4921638;29;20114;-76
2022/07/06 09:42:50;;;;;;;1.63;0.80;;;19.80;92.60;;;;;;4913908;29;20056;-71
2022/07/06 09:45:21;;;;;;;1.75;0.85;;;19.70;93.00;;;;;;4915225;29;20186;-74
2022/07/06 09:47:50;;;;;;;3.75;0.80;;;19.60;93.00;;;;;;4905397;29;20063;-72
2022/07/06 09:50:17;;;;;;;1.75;0.70;;;19.60;93.20;;;;;;4912507;29;20109;-74
2022/07/06 09:52:54;;;;;;;3.53;0.80;;;19.60;93.20;;;;;;4906795;29;20052;-74
2022/07/06 09:55:21;;;;;;;2.75;0.63;;;20.60;93.00;;;;;;4914796;29;20059;-75
2022/07/06 09:57:57;;;;;;;2.58;0.85;;;21.50;92.10;;;;;;4917963;29;20059;-72
2022/07/06 10:00:23;;;;;;;1.30;0.80;;;21.70;91.10;;;;;;4917909;29;20047;-75
2022/07/06 10:02:49;;;;;;;2.65;0.82;;;21.90;91.80;;;;;;4911928;29;20044;-74
2022/07/06 10:05:17;;;;;;;3.42;0.68;;;22.30;91.50;;;;;;4930364;28;20071;-71
2022/07/06 10:07:45;;;;;;;1.42;0.63;;;22.80;91.00;;;;;;4909161;29;20055;-73
2022/07/06 10:10:11;;;;;;;1.80;0.77;;;23.10;90.90;;;;;;4913432;29;20085;-72
2022/07/06 10:12:40;;;;;;;3.95;1.23;;;23.10;90.60;;;;;;4918962;29;20044;-75
2022/07/06 10:15:06;;;;;;;2.63;0.70;;;22.80;90.20;;;;;;4918998;29;20048;-74
2022/07/06 10:17:32;;;;;;;3.33;0.80;;;22.60;90.30;;;;;;4916456;29;20863;-73
2022/07/06 10:19:59;;;;;;;3.80;1.33;;;22.40;90.80;;;;;;4913505;29;20050;-75
2022/07/06 10:22:24;;;;;;;2.05;0.60;;;22.30;90.40;;;;;;4883867;29;20063;-71
2022/07/06 10:24:51;;;;;;;2.38;0.60;;;22.10;90.40;;;;;;4913957;29;20056;-73
2022/07/06 10:27:16;;;;;;;1.20;0.80;;;22.00;90.10;;;;;;4907602;29;20408;-72
2022/07/06 10:29:42;;;;;;;2.88;0.90;;;22.10;90.40;;;;;;4905331;29;20048;-74
2022/07/06 10:32:09;;;;;;;0.93;0.60;;;22.70;90.80;;;;;;4903018;29;20056;-71
2022/07/06 10:34:36;;;;;;;2.20;0.85;;;23.10;90.60;;;;;;4905093;29;20406;-72
2022/07/06 10:37:02;;;;;;;1.38;0.60;;;23.60;90.10;;;;;;4920101;29;20114;-72
2022/07/06 10:42:52;;;;;;;0.70;0.50;;;24.00;87.40;;;;;;4918997;29;20748;-71
2022/07/06 10:45:29;;;;;;;2.88;1.00;;;24.00;83.90;;;;;;4913012;29;21048;-76
2022/07/06 10:48:10;;;;;;;0.68;0.50;;;24.30;85.30;;;;;;4908746;29;20090;-76
2022/07/06 10:50:36;;;;;;;1.55;0.63;;;24.70;85.10;;;;;;4910933;29;20059;-76
2022/07/06 10:53:02;;;;;;;5.28;1.60;;;25.10;87.30;;;;;;4915935;29;20047;-73
2022/07/06 10:55:32;;;;;;;0.80;0.57;;;24.90;85.60;;;;;;4906909;29;20055;-73
2022/07/06 10:57:58;;;;;;;2.33;0.82;;;24.50;85.60;;;;;;4910720;29;20176;-76
2022/07/06 11:00:24;;;;;;;1.35;0.70;;;24.00;86.00;;;;;;4917028;29;20530;-73
2022/07/06 11:02:50;;;;;;;1.55;0.90;;;23.60;85.80;;;;;;4920026;29;20044;-73
2022/07/06 11:05:41;;;;;;;0.82;0.55;;;23.20;85.90;;;;;;4918983;29;20518;-72
2022/07/06 11:08:10;;;;;;;7.75;1.00;;;23.30;82.40;;;;;;4921711;29;20048;-75
2022/07/06 11:10:49;;;;;;;2.90;0.82;;;23.50;83.30;;;;;;4932071;29;20058;-71
2022/07/06 11:13:29;;;;;;;2.28;0.77;;;23.50;82.30;;;;;;4920075;29;20048;-71
2022/07/06 11:16:05;;;;;;;2.28;0.57;;;23.20;82.80;;;;;;4915282;29;20047;-74
2022/07/06 11:18:41;;;;;;;1.27;0.70;;;22.80;82.70;;;;;;4918571;29;20486;-73
2022/07/06 11:21:22;;;;;;;2.72;0.85;;;22.40;84.30;;;;;;4923673;28;20055;-73
2022/07/06 11:23:50;;;;;;;2.13;0.60;;;22.10;83.60;;;;;;4924287;29;20039;-73
2022/07/06 11:26:17;;;;;;;1.67;0.95;;;22.00;85.00;;;;;;4928572;28;20094;-72
2022/07/06 11:28:46;;;;;;;2.22;0.80;;;22.00;86.10;;;;;;4918869;29;20060;-73
2022/07/06 11:31:12;;;;;;;1.85;0.80;;;22.00;86.30;;;;;;4918554;29;20064;-73
2022/07/06 11:33:38;;;;;;;1.02;0.70;;;22.10;85.60;;;;;;4919304;29;20043;-76
2022/07/06 11:36:18;;;;;;;3.88;1.30;;;22.50;86.10;;;;;;4919520;29;20598;-73
2022/07/06 11:38:45;;;;;;;1.20;0.57;;;22.90;84.40;;;;;;4919644;29;20071;-73
2022/07/06 11:41:13;;;;;;;2.17;1.00;;;23.10;83.50;;;;;;4919261;29;20051;-71
2022/07/06 11:43:44;;;;;;;2.70;0.98;;;23.40;84.20;;;;;;4927635;29;20047;-73
2022/07/06 11:46:30;;;;;;;2.45;1.05;;;23.40;83.60;;;;;;4923086;29;20140;-77
2022/07/06 11:48:58;;;;;;;1.70;0.90;;;23.30;84.50;;;;;;4914621;29;20507;-71
2022/07/06 11:51:28;;;;;;;1.90;1.00;;;23.00;84.20;;;;;;4932528;29;20078;-73
2022/07/06 11:53:59;;;;;;;1.15;0.77;;;22.80;85.10;;;;;;4928069;28;20047;-73
2022/07/06 11:56:29;;;;;;;1.55;0.90;;;22.70;85.30;;;;;;4919868;29;20063;-76
2022/07/06 11:58:57;;;;;;;1.95;1.00;;;22.50;85.40;;;;;;4923587;29;20131;-72
2022/07/06 12:01:24;;;;;;;2.03;0.65;;;22.80;86.00;;;;;;4917141;29;20051;-73
2022/07/06 12:03:50;;;;;;;5.00;1.10;;;23.00;85.10;;;;;;4913203;29;20643;-73
2022/07/06 12:06:21;;;;;;;0.80;0.68;;;23.10;84.10;;;;;;4918055;29;20066;-72
2022/07/06 12:08:49;;;;;;;1.88;1.08;;;23.30;84.60;;;;;;4915910;29;20052;-72
2022/07/06 12:11:33;;;;;;;3.17;1.13;;;23.40;84.40;;;;;;4917234;29;20452;-73
2022/07/06 12:14:02;;;;;;;3.00;1.55;;;23.40;83.70;;;;;;4911215;29;20043;-73
2022/07/06 12:16:36;;;;;;;1.25;1.10;;;23.30;84.00;;;;;;4908721;29;20052;-74
2022/07/06 12:19:05;;;;;;;2.65;0.85;;;23.30;83.50;;;;;;4906454;29;20126;-72
2022/07/06 12:21:31;;;;;;;1.02;0.70;;;23.40;81.70;;;;;;4915941;29;20063;-73
2022/07/06 12:23:57;;;;;;;1.05;0.60;;;23.40;82.30;;;;;;4925800;29;20047;-75
2022/07/06 12:26:26;;;;;;;1.27;0.90;;;23.20;81.50;;;;;;4918196;29;20495;-77
2022/07/06 12:29:10;;;;;;;0.90;0.80;;;23.20;82.50;;;;;;4920410;29;20059;-73
2022/07/06 12:31:54;;;;;;;1.73;0.70;;;23.40;81.00;;;;;;4919377;29;20052;-75
2022/07/06 12:34:25;;;;;;;0.77;0.60;;;23.40;79.40;;;;;;4919019;29;20166;-72
2022/07/06 12:36:53;;;;;;;1.75;1.00;;;23.30;80.80;;;;;;4919782;29;20051;-72
2022/07/06 12:39:21;;;;;;;2.50;0.95;;;23.40;80.30;;;;;;4910856;29;20403;-75
2022/07/06 12:41:52;;;;;;;0.77;0.77;;;23.40;81.10;;;;;;4930605;29;20865;-71
2022/07/06 12:44:26;;;;;;;1.83;0.82;;;23.40;80.00;;;;;;4919725;28;20883;-74
2022/07/06 12:47:23;;;;;;;1.70;1.00;;;23.30;80.60;;;;;;4915925;28;20055;-74
2022/07/06 12:50:07;;;;;;;1.95;0.73;;;23.40;81.80;;;;;;4919602;29;20065;-75
2022/07/06 12:52:33;;;;;;;0.70;0.70;;;23.50;82.30;;;;;;4917174;28;20049;-71
2022/07/06 12:55:01;;;;;;;3.13;0.90;;;23.90;82.30;;;;;;4922586;29;20069;-73